sensor_id;sensor_type;location;lat;lon;timestamp;P1;durP1;ratioP1;P2;durP2;ratioP2
63007;SDS011;49266;47.552;19.078;2022-12-10T00:00:09;22.42;;;16.10;;
63007;SDS011;49266;47.552;19.078;2022-12-10T00:04:49;22.38;;;15.80;;
63007;SDS011;49266;47.552;19.078;2022-12-10T00:09:29;19.92;;;14.07;;
63007;SDS011;49266;47.552;19.078;2022-12-10T00:14:11;18.80;;;13.52;;
63007;SDS011;49266;47.552;19.078;2022-12-10T00:18:51;19.77;;;14.18;;
63007;SDS011;49266;47.552;19.078;2022-12-10T00:23:32;23.05;;;15.43;;
63007;SDS011;49266;47.552;19.078;2022-12-10T00:28:12;22.45;;;15.40;;
63007;SDS011;49266;47.552;19.078;2022-12-10T00:32:53;22.08;;;15.55;;
63007;SDS011;49266;47.552;19.078;2022-12-10T00:37:33;22.10;;;14.55;;
63007;SDS011;49266;47.552;19.078;2022-12-10T00:42:13;19.83;;;14.48;;
63007;SDS011;49266;47.552;19.078;2022-12-10T00:46:53;17.95;;;13.95;;
63007;SDS011;49266;47.552;19.078;2022-12-10T00:51:34;20.42;;;14.50;;
63007;SDS011;49266;47.552;19.078;2022-12-10T00:56:15;23.70;;;15.30;;
63007;SDS011;49266;47.552;19.078;2022-12-10T01:05:54;23.55;;;16.15;;
63007;SDS011;49266;47.552;19.078;2022-12-10T01:10:35;18.38;;;13.10;;
63007;SDS011;49266;47.552;19.078;2022-12-10T01:15:15;18.55;;;13.80;;
63007;SDS011;49266;47.552;19.078;2022-12-10T01:19:55;18.92;;;13.65;;
63007;SDS011;49266;47.552;19.078;2022-12-10T01:24:35;21.20;;;14.63;;
63007;SDS011;49266;47.552;19.078;2022-12-10T01:29:16;20.67;;;14.48;;
63007;SDS011;49266;47.552;19.078;2022-12-10T01:33:56;20.55;;;14.00;;
63007;SDS011;49266;47.552;19.078;2022-12-10T01:38:38;20.58;;;14.48;;
63007;SDS011;49266;47.552;19.078;2022-12-10T01:43:18;18.65;;;14.30;;
63007;SDS011;49266;47.552;19.078;2022-12-10T01:47:58;18.63;;;14.65;;
63007;SDS011;49266;47.552;19.078;2022-12-10T01:52:38;19.90;;;14.77;;
63007;SDS011;49266;47.552;19.078;2022-12-10T01:57:23;21.80;;;14.45;;
63007;SDS011;49266;47.552;19.078;2022-12-10T02:02:07;20.73;;;14.93;;
63007;SDS011;49266;47.552;19.078;2022-12-10T02:16:38;20.17;;;14.57;;
63007;SDS011;49266;47.552;19.078;2022-12-10T02:21:21;19.92;;;13.52;;
63007;SDS011;49266;47.552;19.078;2022-12-10T02:26:05;15.57;;;11.27;;
63007;SDS011;49266;47.552;19.078;2022-12-10T02:30:46;12.63;;;8.85;;
63007;SDS011;49266;47.552;19.078;2022-12-10T02:35:28;9.23;;;7.78;;
63007;SDS011;49266;47.552;19.078;2022-12-10T02:40:11;12.73;;;8.95;;
63007;SDS011;49266;47.552;19.078;2022-12-10T02:44:53;16.30;;;10.23;;
63007;SDS011;49266;47.552;19.078;2022-12-10T02:49:33;15.35;;;10.52;;
63007;SDS011;49266;47.552;19.078;2022-12-10T02:59:18;14.63;;;9.50;;
63007;SDS011;49266;47.552;19.078;2022-12-10T03:04:11;17.15;;;10.82;;
63007;SDS011;49266;47.552;19.078;2022-12-10T03:09:04;17.63;;;11.02;;
63007;SDS011;49266;47.552;19.078;2022-12-10T03:18:32;20.43;;;11.93;;
63007;SDS011;49266;47.552;19.078;2022-12-10T03:23:15;22.27;;;11.73;;
63007;SDS011;49266;47.552;19.078;2022-12-10T03:27:57;23.23;;;12.23;;
63007;SDS011;49266;47.552;19.078;2022-12-10T03:32:38;24.08;;;11.45;;
63007;SDS011;49266;47.552;19.078;2022-12-10T03:37:19;26.42;;;11.95;;
63007;SDS011;49266;47.552;19.078;2022-12-10T03:42:00;28.08;;;13.05;;
63007;SDS011;49266;47.552;19.078;2022-12-10T03:46:40;27.33;;;12.63;;
63007;SDS011;49266;47.552;19.078;2022-12-10T03:51:20;28.80;;;13.48;;
63007;SDS011;49266;47.552;19.078;2022-12-10T03:56:01;29.40;;;14.32;;
63007;SDS011;49266;47.552;19.078;2022-12-10T04:00:41;32.75;;;13.95;;
63007;SDS011;49266;47.552;19.078;2022-12-10T04:05:21;32.33;;;13.77;;
63007;SDS011;49266;47.552;19.078;2022-12-10T04:10:02;31.42;;;14.90;;
63007;SDS011;49266;47.552;19.078;2022-12-10T04:14:42;33.75;;;14.45;;
63007;SDS011;49266;47.552;19.078;2022-12-10T04:19:41;29.55;;;14.02;;
63007;SDS011;49266;47.552;19.078;2022-12-10T04:24:23;33.15;;;14.80;;
63007;SDS011;49266;47.552;19.078;2022-12-10T04:29:23;32.22;;;14.98;;
63007;SDS011;49266;47.552;19.078;2022-12-10T04:34:03;33.83;;;15.38;;
63007;SDS011;49266;47.552;19.078;2022-12-10T04:38:44;34.60;;;15.18;;
63007;SDS011;49266;47.552;19.078;2022-12-10T04:43:24;32.30;;;15.80;;
63007;SDS011;49266;47.552;19.078;2022-12-10T04:48:05;33.50;;;17.20;;
63007;SDS011;49266;47.552;19.078;2022-12-10T04:52:45;31.67;;;15.32;;
63007;SDS011;49266;47.552;19.078;2022-12-10T04:57:26;30.75;;;14.77;;
63007;SDS011;49266;47.552;19.078;2022-12-10T05:02:06;31.50;;;16.50;;
63007;SDS011;49266;47.552;19.078;2022-12-10T05:06:47;36.42;;;19.05;;
63007;SDS011;49266;47.552;19.078;2022-12-10T05:11:29;36.92;;;18.67;;
63007;SDS011;49266;47.552;19.078;2022-12-10T05:16:10;38.17;;;20.77;;
63007;SDS011;49266;47.552;19.078;2022-12-10T05:20:50;39.15;;;20.30;;
63007;SDS011;49266;47.552;19.078;2022-12-10T05:25:31;31.75;;;17.00;;
63007;SDS011;49266;47.552;19.078;2022-12-10T05:30:11;40.55;;;20.50;;
63007;SDS011;49266;47.552;19.078;2022-12-10T05:34:51;36.33;;;19.55;;
63007;SDS011;49266;47.552;19.078;2022-12-10T05:39:32;35.97;;;18.52;;
63007;SDS011;49266;47.552;19.078;2022-12-10T05:44:12;36.05;;;20.95;;
63007;SDS011;49266;47.552;19.078;2022-12-10T05:48:52;35.25;;;20.33;;
63007;SDS011;49266;47.552;19.078;2022-12-10T05:53:33;33.58;;;17.48;;
63007;SDS011;49266;47.552;19.078;2022-12-10T05:58:13;37.70;;;21.20;;
63007;SDS011;49266;47.552;19.078;2022-12-10T06:02:54;35.55;;;21.00;;
63007;SDS011;49266;47.552;19.078;2022-12-10T06:07:34;32.78;;;18.70;;
63007;SDS011;49266;47.552;19.078;2022-12-10T06:12:14;34.75;;;19.60;;
63007;SDS011;49266;47.552;19.078;2022-12-10T06:16:55;36.33;;;20.95;;
63007;SDS011;49266;47.552;19.078;2022-12-10T06:21:35;35.63;;;20.95;;
63007;SDS011;49266;47.552;19.078;2022-12-10T06:26:16;34.65;;;18.60;;
63007;SDS011;49266;47.552;19.078;2022-12-10T06:30:58;28.48;;;15.90;;
63007;SDS011;49266;47.552;19.078;2022-12-10T06:35:38;27.42;;;16.00;;
63007;SDS011;49266;47.552;19.078;2022-12-10T06:40:18;31.50;;;19.05;;
63007;SDS011;49266;47.552;19.078;2022-12-10T06:44:58;32.45;;;17.40;;
63007;SDS011;49266;47.552;19.078;2022-12-10T06:49:39;33.53;;;19.70;;
63007;SDS011;49266;47.552;19.078;2022-12-10T06:54:20;34.47;;;18.90;;
63007;SDS011;49266;47.552;19.078;2022-12-10T06:59:03;30.70;;;17.23;;
63007;SDS011;49266;47.552;19.078;2022-12-10T07:03:43;32.60;;;18.75;;
63007;SDS011;49266;47.552;19.078;2022-12-10T07:08:24;39.20;;;23.65;;
63007;SDS011;49266;47.552;19.078;2022-12-10T07:13:04;36.53;;;21.23;;
63007;SDS011;49266;47.552;19.078;2022-12-10T07:17:44;40.67;;;23.48;;
63007;SDS011;49266;47.552;19.078;2022-12-10T07:22:24;38.75;;;23.08;;
63007;SDS011;49266;47.552;19.078;2022-12-10T07:27:05;41.47;;;26.33;;
63007;SDS011;49266;47.552;19.078;2022-12-10T07:31:46;41.33;;;24.25;;
63007;SDS011;49266;47.552;19.078;2022-12-10T07:36:28;40.70;;;25.10;;
63007;SDS011;49266;47.552;19.078;2022-12-10T07:41:09;37.90;;;24.77;;
63007;SDS011;49266;47.552;19.078;2022-12-10T07:45:50;35.85;;;21.33;;
63007;SDS011;49266;47.552;19.078;2022-12-10T07:50:30;40.75;;;24.80;;
63007;SDS011;49266;47.552;19.078;2022-12-10T07:55:10;39.65;;;23.17;;
63007;SDS011;49266;47.552;19.078;2022-12-10T07:59:50;33.15;;;19.35;;
63007;SDS011;49266;47.552;19.078;2022-12-10T08:04:30;33.47;;;20.85;;
63007;SDS011;49266;47.552;19.078;2022-12-10T08:09:11;30.23;;;18.92;;
63007;SDS011;49266;47.552;19.078;2022-12-10T08:13:52;30.95;;;19.73;;
63007;SDS011;49266;47.552;19.078;2022-12-10T08:18:32;36.22;;;21.23;;
63007;SDS011;49266;47.552;19.078;2022-12-10T08:23:13;35.03;;;20.38;;
63007;SDS011;49266;47.552;19.078;2022-12-10T08:27:53;33.05;;;21.45;;
63007;SDS011;49266;47.552;19.078;2022-12-10T08:32:33;31.98;;;19.88;;
63007;SDS011;49266;47.552;19.078;2022-12-10T08:37:13;30.73;;;19.52;;
63007;SDS011;49266;47.552;19.078;2022-12-10T08:41:54;30.77;;;19.75;;
63007;SDS011;49266;47.552;19.078;2022-12-10T08:46:34;33.03;;;21.17;;
63007;SDS011;49266;47.552;19.078;2022-12-10T08:51:15;29.63;;;18.98;;
63007;SDS011;49266;47.552;19.078;2022-12-10T08:55:56;30.27;;;19.15;;
63007;SDS011;49266;47.552;19.078;2022-12-10T09:00:36;29.42;;;19.10;;
63007;SDS011;49266;47.552;19.078;2022-12-10T09:05:17;27.10;;;18.40;;
63007;SDS011;49266;47.552;19.078;2022-12-10T09:09:57;26.52;;;17.77;;
63007;SDS011;49266;47.552;19.078;2022-12-10T09:14:37;29.13;;;19.27;;
63007;SDS011;49266;47.552;19.078;2022-12-10T09:19:20;31.30;;;19.75;;
63007;SDS011;49266;47.552;19.078;2022-12-10T09:24:00;30.75;;;19.63;;
63007;SDS011;49266;47.552;19.078;2022-12-10T09:28:41;32.10;;;20.38;;
63007;SDS011;49266;47.552;19.078;2022-12-10T09:33:21;35.33;;;21.83;;
63007;SDS011;49266;47.552;19.078;2022-12-10T09:38:01;30.63;;;17.98;;
63007;SDS011;49266;47.552;19.078;2022-12-10T09:47:24;31.02;;;18.17;;
63007;SDS011;49266;47.552;19.078;2022-12-10T09:52:08;30.00;;;17.13;;
63007;SDS011;49266;47.552;19.078;2022-12-10T09:56:50;32.80;;;18.60;;
63007;SDS011;49266;47.552;19.078;2022-12-10T10:01:32;35.80;;;19.67;;
63007;SDS011;49266;47.552;19.078;2022-12-10T10:06:13;37.53;;;22.73;;
63007;SDS011;49266;47.552;19.078;2022-12-10T10:10:53;36.88;;;21.88;;
63007;SDS011;49266;47.552;19.078;2022-12-10T10:15:35;37.35;;;22.92;;
63007;SDS011;49266;47.552;19.078;2022-12-10T10:20:16;36.80;;;21.48;;
63007;SDS011;49266;47.552;19.078;2022-12-10T10:24:56;40.22;;;23.75;;
63007;SDS011;49266;47.552;19.078;2022-12-10T10:29:36;42.50;;;24.00;;
63007;SDS011;49266;47.552;19.078;2022-12-10T10:34:18;43.38;;;25.63;;
63007;SDS011;49266;47.552;19.078;2022-12-10T10:39:09;46.38;;;26.98;;
63007;SDS011;49266;47.552;19.078;2022-12-10T10:43:53;48.00;;;28.25;;
63007;SDS011;49266;47.552;19.078;2022-12-10T10:53:26;47.30;;;27.15;;
63007;SDS011;49266;47.552;19.078;2022-12-10T10:58:16;51.13;;;28.55;;
63007;SDS011;49266;47.552;19.078;2022-12-10T11:02:57;49.70;;;28.48;;
63007;SDS011;49266;47.552;19.078;2022-12-10T11:07:40;52.92;;;31.27;;
63007;SDS011;49266;47.552;19.078;2022-12-10T11:12:33;51.47;;;30.05;;
63007;SDS011;49266;47.552;19.078;2022-12-10T11:17:18;51.40;;;28.67;;
63007;SDS011;49266;47.552;19.078;2022-12-10T11:22:12;52.88;;;29.02;;
63007;SDS011;49266;47.552;19.078;2022-12-10T11:27:04;57.25;;;31.58;;
63007;SDS011;49266;47.552;19.078;2022-12-10T11:50:59;57.47;;;29.30;;
63007;SDS011;49266;47.552;19.078;2022-12-10T12:00:23;62.22;;;32.95;;
63007;SDS011;49266;47.552;19.078;2022-12-10T12:14:49;61.63;;;31.40;;
63007;SDS011;49266;47.552;19.078;2022-12-10T12:19:35;61.45;;;31.95;;
63007;SDS011;49266;47.552;19.078;2022-12-10T12:38:53;59.85;;;32.13;;
63007;SDS011;49266;47.552;19.078;2022-12-10T12:52:59;54.70;;;30.55;;
63007;SDS011;49266;47.552;19.078;2022-12-10T12:57:42;53.58;;;30.02;;
63007;SDS011;49266;47.552;19.078;2022-12-10T13:21:30;51.83;;;30.55;;
63007;SDS011;49266;47.552;19.078;2022-12-10T13:26:30;54.20;;;30.13;;
63007;SDS011;49266;47.552;19.078;2022-12-10T13:35:58;60.13;;;32.50;;
63007;SDS011;49266;47.552;19.078;2022-12-10T13:40:40;63.20;;;33.63;;
63007;SDS011;49266;47.552;19.078;2022-12-10T13:45:39;60.35;;;33.30;;
63007;SDS011;49266;47.552;19.078;2022-12-10T13:55:17;62.80;;;35.28;;
63007;SDS011;49266;47.552;19.078;2022-12-10T14:05:05;61.30;;;35.13;;
63007;SDS011;49266;47.552;19.078;2022-12-10T14:09:51;60.13;;;34.13;;
63007;SDS011;49266;47.552;19.078;2022-12-10T14:19:13;69.97;;;35.75;;
63007;SDS011;49266;47.552;19.078;2022-12-10T14:23:54;62.88;;;33.47;;
63007;SDS011;49266;47.552;19.078;2022-12-10T14:28:37;64.82;;;35.60;;
63007;SDS011;49266;47.552;19.078;2022-12-10T14:33:19;59.55;;;33.70;;
63007;SDS011;49266;47.552;19.078;2022-12-10T14:38:01;63.78;;;34.17;;
63007;SDS011;49266;47.552;19.078;2022-12-10T14:42:41;60.70;;;34.00;;
63007;SDS011;49266;47.552;19.078;2022-12-10T14:47:21;60.95;;;34.00;;
63007;SDS011;49266;47.552;19.078;2022-12-10T14:52:02;55.15;;;32.67;;
63007;SDS011;49266;47.552;19.078;2022-12-10T14:56:42;59.35;;;32.70;;
63007;SDS011;49266;47.552;19.078;2022-12-10T15:01:30;57.92;;;31.60;;
63007;SDS011;49266;47.552;19.078;2022-12-10T15:06:12;54.35;;;31.67;;
63007;SDS011;49266;47.552;19.078;2022-12-10T15:10:56;53.80;;;29.73;;
63007;SDS011;49266;47.552;19.078;2022-12-10T15:15:37;55.15;;;28.80;;
63007;SDS011;49266;47.552;19.078;2022-12-10T15:20:19;51.42;;;28.15;;
63007;SDS011;49266;47.552;19.078;2022-12-10T15:25:02;47.25;;;25.80;;
63007;SDS011;49266;47.552;19.078;2022-12-10T15:29:54;51.95;;;28.98;;
63007;SDS011;49266;47.552;19.078;2022-12-10T15:34:39;51.35;;;27.85;;
63007;SDS011;49266;47.552;19.078;2022-12-10T15:39:21;49.25;;;26.95;;
63007;SDS011;49266;47.552;19.078;2022-12-10T15:44:04;46.22;;;25.77;;
63007;SDS011;49266;47.552;19.078;2022-12-10T15:48:45;51.88;;;28.80;;
63007;SDS011;49266;47.552;19.078;2022-12-10T15:53:26;54.70;;;28.60;;
63007;SDS011;49266;47.552;19.078;2022-12-10T15:58:16;53.63;;;28.50;;
63007;SDS011;49266;47.552;19.078;2022-12-10T16:02:57;51.33;;;28.10;;
63007;SDS011;49266;47.552;19.078;2022-12-10T16:07:38;51.50;;;28.35;;
63007;SDS011;49266;47.552;19.078;2022-12-10T16:12:18;52.88;;;28.13;;
63007;SDS011;49266;47.552;19.078;2022-12-10T16:16:59;47.75;;;26.70;;
63007;SDS011;49266;47.552;19.078;2022-12-10T16:21:39;55.42;;;29.50;;
63007;SDS011;49266;47.552;19.078;2022-12-10T16:26:21;49.97;;;27.67;;
63007;SDS011;49266;47.552;19.078;2022-12-10T16:31:02;57.25;;;30.35;;
63007;SDS011;49266;47.552;19.078;2022-12-10T16:35:46;54.30;;;29.25;;
63007;SDS011;49266;47.552;19.078;2022-12-10T16:40:27;51.72;;;28.58;;
63007;SDS011;49266;47.552;19.078;2022-12-10T16:45:18;53.35;;;30.25;;
63007;SDS011;49266;47.552;19.078;2022-12-10T16:49:59;54.92;;;30.70;;
63007;SDS011;49266;47.552;19.078;2022-12-10T16:54:41;54.42;;;30.33;;
63007;SDS011;49266;47.552;19.078;2022-12-10T16:59:21;56.53;;;31.73;;
63007;SDS011;49266;47.552;19.078;2022-12-10T17:04:02;57.25;;;30.63;;
63007;SDS011;49266;47.552;19.078;2022-12-10T17:08:43;54.35;;;29.75;;
63007;SDS011;49266;47.552;19.078;2022-12-10T17:13:23;54.80;;;28.20;;
63007;SDS011;49266;47.552;19.078;2022-12-10T17:18:08;53.72;;;28.92;;
63007;SDS011;49266;47.552;19.078;2022-12-10T17:22:48;51.30;;;27.52;;
63007;SDS011;49266;47.552;19.078;2022-12-10T17:27:28;53.00;;;27.83;;
63007;SDS011;49266;47.552;19.078;2022-12-10T17:32:11;48.33;;;26.27;;
63007;SDS011;49266;47.552;19.078;2022-12-10T17:36:52;51.63;;;27.98;;
63007;SDS011;49266;47.552;19.078;2022-12-10T17:41:32;50.50;;;27.50;;
63007;SDS011;49266;47.552;19.078;2022-12-10T17:46:21;54.50;;;29.52;;
63007;SDS011;49266;47.552;19.078;2022-12-10T17:51:01;60.22;;;31.17;;
63007;SDS011;49266;47.552;19.078;2022-12-10T17:55:42;58.63;;;30.80;;
63007;SDS011;49266;47.552;19.078;2022-12-10T18:00:23;58.08;;;31.70;;
63007;SDS011;49266;47.552;19.078;2022-12-10T18:05:03;58.78;;;31.17;;
63007;SDS011;49266;47.552;19.078;2022-12-10T18:09:43;55.70;;;30.23;;
63007;SDS011;49266;47.552;19.078;2022-12-10T18:14:24;53.10;;;30.13;;
63007;SDS011;49266;47.552;19.078;2022-12-10T18:19:09;51.83;;;29.13;;
63007;SDS011;49266;47.552;19.078;2022-12-10T18:23:51;51.38;;;28.95;;
63007;SDS011;49266;47.552;19.078;2022-12-10T18:33:13;52.30;;;31.08;;
63007;SDS011;49266;47.552;19.078;2022-12-10T18:37:55;51.47;;;29.35;;
63007;SDS011;49266;47.552;19.078;2022-12-10T18:42:36;51.60;;;28.52;;
63007;SDS011;49266;47.552;19.078;2022-12-10T18:47:16;49.42;;;27.65;;
63007;SDS011;49266;47.552;19.078;2022-12-10T18:51:56;48.58;;;27.90;;
63007;SDS011;49266;47.552;19.078;2022-12-10T18:56:37;51.00;;;28.35;;
63007;SDS011;49266;47.552;19.078;2022-12-10T19:01:18;45.50;;;26.40;;
63007;SDS011;49266;47.552;19.078;2022-12-10T19:05:59;44.80;;;26.52;;
63007;SDS011;49266;47.552;19.078;2022-12-10T19:10:39;46.28;;;26.98;;
63007;SDS011;49266;47.552;19.078;2022-12-10T19:15:21;44.38;;;26.23;;
63007;SDS011;49266;47.552;19.078;2022-12-10T19:20:02;41.25;;;24.67;;
63007;SDS011;49266;47.552;19.078;2022-12-10T19:24:43;40.58;;;23.40;;
63007;SDS011;49266;47.552;19.078;2022-12-10T19:29:24;42.78;;;24.75;;
63007;SDS011;49266;47.552;19.078;2022-12-10T19:34:05;42.70;;;24.33;;
63007;SDS011;49266;47.552;19.078;2022-12-10T19:38:45;41.08;;;23.73;;
63007;SDS011;49266;47.552;19.078;2022-12-10T19:43:27;39.20;;;23.58;;
63007;SDS011;49266;47.552;19.078;2022-12-10T19:48:08;35.90;;;21.58;;
63007;SDS011;49266;47.552;19.078;2022-12-10T19:52:49;38.95;;;21.95;;
63007;SDS011;49266;47.552;19.078;2022-12-10T19:57:29;31.30;;;19.67;;
63007;SDS011;49266;47.552;19.078;2022-12-10T20:02:10;33.13;;;19.70;;
63007;SDS011;49266;47.552;19.078;2022-12-10T20:06:51;34.50;;;20.05;;
63007;SDS011;49266;47.552;19.078;2022-12-10T20:11:31;32.25;;;19.95;;
63007;SDS011;49266;47.552;19.078;2022-12-10T20:16:25;30.45;;;18.15;;
63007;SDS011;49266;47.552;19.078;2022-12-10T20:21:07;32.65;;;19.58;;
63007;SDS011;49266;47.552;19.078;2022-12-10T20:25:48;31.15;;;19.85;;
63007;SDS011;49266;47.552;19.078;2022-12-10T20:30:29;32.03;;;20.42;;
63007;SDS011;49266;47.552;19.078;2022-12-10T20:35:11;33.97;;;20.58;;
63007;SDS011;49266;47.552;19.078;2022-12-10T20:39:52;34.10;;;20.77;;
63007;SDS011;49266;47.552;19.078;2022-12-10T20:44:33;31.27;;;20.15;;
63007;SDS011;49266;47.552;19.078;2022-12-10T20:49:15;26.40;;;16.77;;
63007;SDS011;49266;47.552;19.078;2022-12-10T20:53:57;27.38;;;18.15;;
63007;SDS011;49266;47.552;19.078;2022-12-10T20:58:37;30.02;;;18.63;;
63007;SDS011;49266;47.552;19.078;2022-12-10T21:03:18;25.92;;;16.67;;
63007;SDS011;49266;47.552;19.078;2022-12-10T21:07:59;29.90;;;18.65;;
63007;SDS011;49266;47.552;19.078;2022-12-10T21:12:46;26.27;;;16.38;;
63007;SDS011;49266;47.552;19.078;2022-12-10T21:17:26;24.90;;;16.13;;
63007;SDS011;49266;47.552;19.078;2022-12-10T21:22:10;23.42;;;15.63;;
63007;SDS011;49266;47.552;19.078;2022-12-10T21:26:51;22.60;;;14.50;;
63007;SDS011;49266;47.552;19.078;2022-12-10T21:31:32;23.15;;;15.27;;
63007;SDS011;49266;47.552;19.078;2022-12-10T21:36:14;22.17;;;15.40;;
63007;SDS011;49266;47.552;19.078;2022-12-10T21:40:55;22.63;;;15.30;;
63007;SDS011;49266;47.552;19.078;2022-12-10T21:45:35;19.42;;;12.27;;
63007;SDS011;49266;47.552;19.078;2022-12-10T21:50:15;20.88;;;13.25;;
63007;SDS011;49266;47.552;19.078;2022-12-10T21:54:57;19.30;;;12.55;;
63007;SDS011;49266;47.552;19.078;2022-12-10T21:59:37;16.90;;;10.80;;
63007;SDS011;49266;47.552;19.078;2022-12-10T22:04:17;17.15;;;11.63;;
63007;SDS011;49266;47.552;19.078;2022-12-10T22:08:58;17.35;;;10.55;;
63007;SDS011;49266;47.552;19.078;2022-12-10T22:13:38;18.30;;;12.32;;
63007;SDS011;49266;47.552;19.078;2022-12-10T22:18:18;22.80;;;12.30;;
63007;SDS011;49266;47.552;19.078;2022-12-10T22:22:59;21.45;;;12.95;;
63007;SDS011;49266;47.552;19.078;2022-12-10T22:27:39;19.27;;;12.43;;
63007;SDS011;49266;47.552;19.078;2022-12-10T22:32:20;21.42;;;13.15;;
63007;SDS011;49266;47.552;19.078;2022-12-10T22:37:01;17.92;;;11.10;;
63007;SDS011;49266;47.552;19.078;2022-12-10T22:41:41;20.52;;;13.20;;
63007;SDS011;49266;47.552;19.078;2022-12-10T22:46:22;20.50;;;12.48;;
63007;SDS011;49266;47.552;19.078;2022-12-10T22:51:03;20.00;;;11.98;;
63007;SDS011;49266;47.552;19.078;2022-12-10T22:55:44;18.38;;;12.30;;
63007;SDS011;49266;47.552;19.078;2022-12-10T23:00:24;24.63;;;14.02;;
63007;SDS011;49266;47.552;19.078;2022-12-10T23:05:04;20.80;;;12.52;;
63007;SDS011;49266;47.552;19.078;2022-12-10T23:09:45;19.55;;;11.95;;
63007;SDS011;49266;47.552;19.078;2022-12-10T23:14:25;20.05;;;12.18;;
63007;SDS011;49266;47.552;19.078;2022-12-10T23:19:05;22.05;;;12.82;;
63007;SDS011;49266;47.552;19.078;2022-12-10T23:23:46;26.52;;;14.20;;
63007;SDS011;49266;47.552;19.078;2022-12-10T23:28:27;21.23;;;12.98;;
63007;SDS011;49266;47.552;19.078;2022-12-10T23:33:07;24.92;;;14.88;;
63007;SDS011;49266;47.552;19.078;2022-12-10T23:37:47;24.20;;;14.07;;
63007;SDS011;49266;47.552;19.078;2022-12-10T23:42:29;27.00;;;15.50;;
63007;SDS011;49266;47.552;19.078;2022-12-10T23:47:10;24.27;;;13.85;;
63007;SDS011;49266;47.552;19.078;2022-12-10T23:51:50;30.33;;;15.68;;
63007;SDS011;49266;47.552;19.078;2022-12-10T23:56:30;28.15;;;15.50;;
